createdAt,value
2023-03-20T00:01:49.873Z,100354.91
2023-03-20T00:04:52.678Z,100348.91
2023-03-20T00:07:55.671Z,100346.38
2023-03-20T00:10:58.822Z,100348.47
2023-03-20T00:14:07.957Z,100347.34
2023-03-20T00:17:18.433Z,100345.34
2023-03-20T00:20:22.382Z,100339.78
2023-03-20T00:23:25.052Z,100342.69
2023-03-20T00:26:33.679Z,100339.78
2023-03-20T00:29:36.846Z,100347.81
2023-03-20T00:32:39.447Z,100349.50
2023-03-20T00:35:42.072Z,100345.72
2023-03-20T00:38:44.917Z,100347.16
2023-03-20T00:41:52.991Z,100344.88
2023-03-20T00:44:59.664Z,100342.53
2023-03-20T00:48:03.496Z,100342.22
2023-03-20T00:51:06.688Z,100334.16
2023-03-20T00:54:18.592Z,100333.31
2023-03-20T00:57:30.579Z,100340.16
2023-03-20T01:00:41.244Z,100344.25
2023-03-20T01:03:44.605Z,100342.94
2023-03-20T01:06:47.483Z,100346.38
2023-03-20T01:09:50.671Z,100348.97
2023-03-20T01:12:56.500Z,100344.13
2023-03-20T01:15:59.616Z,100348.94
2023-03-20T01:19:02.357Z,100347.50
2023-03-20T01:22:05.051Z,100346.28
2023-03-20T01:25:08.327Z,100341.75
2023-03-20T01:28:16.513Z,100340.31
2023-03-20T01:31:19.285Z,100338.91
2023-03-20T01:34:22.293Z,100337.72
2023-03-20T01:37:27.664Z,100336.25
2023-03-20T01:40:57.264Z,100327.06
2023-03-20T01:44:17.474Z,100327.41
2023-03-20T01:47:23.793Z,100322.97
2023-03-20T01:50:32.169Z,100317.84
2023-03-20T01:53:45.533Z,100323.88
2023-03-20T01:56:53.480Z,100318.56
2023-03-20T02:00:06.018Z,100317.22
2023-03-20T02:03:18.960Z,100321.00
2023-03-20T02:06:37.988Z,100329.94
2023-03-20T02:09:59.656Z,100326.06
2023-03-20T02:13:19.576Z,100316.94
2023-03-20T02:16:24.813Z,100319.34
2023-03-20T02:20:20.677Z,100303.94
2023-03-20T02:23:45.027Z,100310.22
2023-03-20T02:26:58.321Z,100309.75
2023-03-20T02:30:07.130Z,100306.34
2023-03-20T02:33:54.007Z,100301.09
2023-03-20T02:37:17.312Z,100297.50
2023-03-20T02:40:33.501Z,100306.81
2023-03-20T02:43:48.770Z,100302.59
2023-03-20T02:47:23.736Z,100289.97
2023-03-20T02:50:59.518Z,100292.44
2023-03-20T02:54:43.992Z,100288.16
2023-03-20T02:58:12.719Z,100284.84
2023-03-20T03:01:22.634Z,100279.06
2023-03-20T03:04:32.652Z,100289.94
2023-03-20T03:07:37.053Z,100287.41
2023-03-20T03:11:07.438Z,100303.16
2023-03-20T03:14:17.434Z,100303.91
2023-03-20T03:17:23.699Z,100310.41
2023-03-20T03:20:32.684Z,100307.78
2023-03-20T03:23:50.263Z,100306.47
2023-03-20T03:26:53.934Z,100316.78
2023-03-20T03:30:04.534Z,100310.63
2023-03-20T03:33:31.343Z,100313.78
2023-03-20T03:36:50.023Z,100313.06
2023-03-20T03:39:58.176Z,100317.41
2023-03-20T03:43:28.031Z,100314.50
2023-03-20T03:46:46.453Z,100309.94
2023-03-20T03:49:53.817Z,100314.97
2023-03-20T03:53:00.094Z,100314.97
2023-03-20T03:56:07.165Z,100324.09
2023-03-20T03:59:20.931Z,100321.22
2023-03-20T04:02:24.504Z,100321.47
2023-03-20T04:05:35.129Z,100332.53
2023-03-20T04:08:43.405Z,100338.56
2023-03-20T04:11:50.022Z,100326.88
2023-03-20T04:14:52.946Z,100331.69
2023-03-20T04:17:58.736Z,100329.84
2023-03-20T04:21:01.895Z,100336.34
2023-03-20T04:24:05.093Z,100340.44
2023-03-20T04:27:07.992Z,100338.59
2023-03-20T04:30:11.484Z,100337.22
2023-03-20T04:33:32.883Z,100348.03
2023-03-20T04:36:54.306Z,100345.16
2023-03-20T04:40:02.068Z,100347.97
2023-03-20T04:43:05.858Z,100353.59
2023-03-20T04:46:08.526Z,100336.53
2023-03-20T04:49:11.404Z,100345.03
2023-03-20T04:52:14.665Z,100348.78
2023-03-20T04:55:19.635Z,100347.91
2023-03-20T04:58:23.234Z,100344.69
2023-03-20T05:01:28.661Z,100346.13
2023-03-20T05:04:32.483Z,100360.31
2023-03-20T05:07:35.467Z,100353.81
2023-03-20T05:10:43.087Z,100354.47
2023-03-20T05:14:09.375Z,100357.84
2023-03-20T05:17:49.903Z,100358.84
2023-03-20T05:21:29.781Z,100367.78
2023-03-20T05:24:47.409Z,100362.78
2023-03-20T05:28:25.447Z,100377.66
2023-03-20T05:31:44.562Z,100374.53
2023-03-20T05:35:13.981Z,100374.75
2023-03-20T05:38:30.220Z,100377.16
2023-03-20T05:41:49.988Z,100376.00
2023-03-20T05:45:21.889Z,100377.72
2023-03-20T05:48:42.963Z,100367.41
2023-03-20T05:52:03.715Z,100368.59
2023-03-20T05:55:33.327Z,100376.69
2023-03-20T05:58:49.276Z,100381.44
2023-03-20T06:02:10.465Z,100378.94
2023-03-20T06:05:17.217Z,100382.56
2023-03-20T06:08:25.814Z,100391.00
2023-03-20T06:11:28.996Z,100398.44
2023-03-20T06:14:31.824Z,100395.06
2023-03-20T06:17:38.052Z,100390.38
2023-03-20T06:20:40.804Z,100390.13
2023-03-20T06:23:44.513Z,100399.19
2023-03-20T06:26:47.415Z,100393.41
2023-03-20T06:29:50.670Z,100393.28
2023-03-20T06:32:59.062Z,100395.38
2023-03-20T06:36:09.929Z,100382.00
2023-03-20T06:39:13.421Z,100387.38
2023-03-20T06:42:16.987Z,100382.56
2023-03-20T06:45:22.645Z,100393.47
2023-03-20T06:48:36.511Z,100396.63
2023-03-20T06:51:41.803Z,100399.13
2023-03-20T06:54:45.100Z,100404.25
2023-03-20T06:57:47.665Z,100390.19
2023-03-20T07:00:53.330Z,100392.44
2023-03-20T07:03:56.092Z,100400.78
2023-03-20T07:07:03.853Z,100393.22
2023-03-20T07:10:07.574Z,100394.38
2023-03-20T07:13:10.603Z,100401.63
2023-03-20T07:16:15.936Z,100401.88
2023-03-20T07:19:19.985Z,100387.00
2023-03-20T07:22:29.088Z,100397.03
2023-03-20T07:25:48.088Z,100391.91
2023-03-20T07:28:53.432Z,100386.69
2023-03-20T07:32:01.134Z,100393.53
2023-03-20T07:35:10.475Z,100390.03
2023-03-20T07:38:16.466Z,100393.22
2023-03-20T07:41:29.083Z,100385.41
2023-03-20T07:44:37.809Z,100397.34
2023-03-20T07:47:47.110Z,100393.19
2023-03-20T07:50:49.829Z,100386.00
2023-03-20T07:53:53.482Z,100396.09
2023-03-20T07:56:56.585Z,100392.63
2023-03-20T07:59:59.487Z,100388.34
2023-03-20T08:03:02.134Z,100403.06
2023-03-20T08:06:06.887Z,100389.19
2023-03-20T08:09:09.896Z,100401.47
2023-03-20T08:12:12.480Z,100397.53
2023-03-20T08:15:15.357Z,100394.84
2023-03-20T08:18:20.040Z,100399.50
2023-03-20T08:21:22.489Z,100404.03
2023-03-20T08:24:25.060Z,100404.19
2023-03-20T08:27:27.536Z,100401.81
2023-03-20T08:30:30.928Z,100397.38
2023-03-20T08:33:33.758Z,100404.31
2023-03-20T08:36:36.814Z,100402.06
2023-03-20T08:39:39.736Z,100402.78
2023-03-20T08:42:42.893Z,100405.28
2023-03-20T08:45:45.623Z,100401.72
2023-03-20T08:48:48.463Z,100405.19
2023-03-20T08:51:51.193Z,100403.66
2023-03-20T08:54:53.825Z,100406.91
2023-03-20T08:57:57.494Z,100413.00
2023-03-20T09:01:05.609Z,100403.75
2023-03-20T09:04:08.555Z,100401.63
2023-03-20T09:07:11.299Z,100398.78
2023-03-20T09:10:14.055Z,100404.63
2023-03-20T09:13:26.656Z,100408.72
2023-03-20T09:16:30.034Z,100415.88
2023-03-20T09:19:32.781Z,100409.31
2023-03-20T09:22:36.416Z,100399.31
2023-03-20T09:25:39.010Z,100405.88
2023-03-20T09:28:41.628Z,100404.00
2023-03-20T09:31:44.490Z,100409.66
2023-03-20T09:34:47.044Z,100404.69
2023-03-20T09:37:49.582Z,100397.72
2023-03-20T09:41:03.985Z,100406.97
2023-03-20T09:44:09.540Z,100400.44
2023-03-20T09:47:22.248Z,100397.41
2023-03-20T09:50:35.775Z,100399.31
2023-03-20T09:53:43.637Z,100399.16
2023-03-20T09:56:46.730Z,100390.22
2023-03-20T09:59:55.505Z,100389.16
2023-03-20T10:03:23.265Z,100387.81
2023-03-20T10:06:26.419Z,100391.81
2023-03-20T10:09:33.836Z,100393.28
2023-03-20T10:12:48.846Z,100401.53
2023-03-20T10:16:21.099Z,100401.09
2023-03-20T10:19:29.156Z,100392.38
2023-03-20T10:22:38.725Z,100397.72
2023-03-20T10:25:47.919Z,100399.31
2023-03-20T10:29:01.043Z,100397.00
2023-03-20T10:32:08.549Z,100399.97
2023-03-20T10:35:22.332Z,100388.63
2023-03-20T10:38:41.213Z,100388.72
2023-03-20T10:41:52.215Z,100391.41
2023-03-20T10:45:13.558Z,100391.78
2023-03-20T10:48:32.157Z,100389.41
2023-03-20T10:52:00.008Z,100388.31
2023-03-20T10:55:12.627Z,100379.69
2023-03-20T10:58:24.179Z,100372.94
2023-03-20T11:01:27.518Z,100368.50
2023-03-20T11:04:30.321Z,100374.28
2023-03-20T11:07:35.668Z,100366.16
2023-03-20T11:10:41.983Z,100360.47
2023-03-20T11:13:45.096Z,100344.34
2023-03-20T11:16:50.037Z,100359.28
2023-03-20T11:19:52.833Z,100348.81
2023-03-20T11:23:05.507Z,100344.00
2023-03-20T11:26:16.291Z,100346.38
2023-03-20T11:29:25.865Z,100353.34
2023-03-20T11:32:46.334Z,100339.09
2023-03-20T11:35:54.025Z,100340.22
2023-03-20T11:39:23.501Z,100333.06
2023-03-20T11:42:30.433Z,100332.34
2023-03-20T11:45:41.955Z,100322.03
2023-03-20T11:48:46.959Z,100326.91
2023-03-20T11:51:49.790Z,100322.34
2023-03-20T11:54:56.979Z,100324.44
2023-03-20T11:58:03.323Z,100326.16
2023-03-20T12:01:11.960Z,100318.19
2023-03-20T12:04:21.309Z,100313.63
2023-03-20T12:07:29.800Z,100304.09
2023-03-20T12:10:41.338Z,100305.03
2023-03-20T12:13:48.928Z,100303.91
2023-03-20T12:17:00.076Z,100306.97
2023-03-20T12:20:34.185Z,100296.16
2023-03-20T12:23:43.711Z,100281.56
2023-03-20T12:27:05.078Z,100290.28
2023-03-20T12:30:14.762Z,100279.72
2023-03-20T12:33:41.559Z,100288.53
2023-03-20T12:36:47.379Z,100288.69
2023-03-20T12:39:57.146Z,100294.78
2023-03-20T12:43:05.609Z,100291.53
2023-03-20T12:46:30.883Z,100287.59
2023-03-20T12:49:46.498Z,100290.38
2023-03-20T12:53:00.606Z,100286.03
2023-03-20T12:56:15.752Z,100287.09
2023-03-20T12:59:40.721Z,100282.16
2023-03-20T13:03:01.911Z,100282.47
2023-03-20T13:06:10.899Z,100278.44
2023-03-20T13:09:32.464Z,100268.28
2023-03-20T13:12:56.424Z,100268.50
2023-03-20T13:16:32.742Z,100258.44
2023-03-20T13:20:00.235Z,100252.97
2023-03-20T13:23:18.810Z,100249.13
2023-03-20T13:26:41.576Z,100243.59
2023-03-20T13:30:29.935Z,100244.25
2023-03-20T13:33:39.312Z,100250.72
2023-03-20T13:37:12.414Z,100247.38
2023-03-20T13:40:29.408Z,100240.38
2023-03-20T13:43:39.358Z,100233.88
2023-03-20T13:46:59.972Z,100243.75
2023-03-20T13:50:27.506Z,100235.31
2023-03-20T13:53:45.939Z,100236.34
2023-03-20T13:57:07.586Z,100244.50
2023-03-20T14:00:36.116Z,100245.06
2023-03-20T14:03:43.803Z,100244.06
2023-03-20T14:06:53.140Z,100247.16
2023-03-20T14:09:56.472Z,100248.19
2023-03-20T14:13:07.014Z,100245.44
2023-03-20T14:16:14.113Z,100247.06
2023-03-20T14:19:20.969Z,100244.53
2023-03-20T14:22:29.086Z,100241.47
2023-03-20T14:25:41.954Z,100239.91
2023-03-20T14:29:03.159Z,100242.34
2023-03-20T14:32:11.623Z,100239.88
2023-03-20T14:35:14.242Z,100234.94
2023-03-20T14:38:25.983Z,100238.38
2023-03-20T14:42:02.427Z,100241.56
2023-03-20T14:45:13.892Z,100244.75
2023-03-20T14:48:27.848Z,100250.25
2023-03-20T14:51:39.498Z,100232.16
2023-03-20T14:54:42.183Z,100232.13
2023-03-20T14:57:56.170Z,100234.81
2023-03-20T15:01:31.244Z,100222.84
2023-03-20T15:04:42.312Z,100233.16
2023-03-20T15:07:45.358Z,100226.50
2023-03-20T15:10:51.948Z,100227.53
2023-03-20T15:13:56.096Z,100228.09
2023-03-20T15:17:00.385Z,100232.16
2023-03-20T15:20:12.650Z,100235.97
2023-03-20T15:23:15.593Z,100226.53
2023-03-20T15:26:22.191Z,100232.88
2023-03-20T15:29:25.162Z,100227.81
2023-03-20T15:32:28.182Z,100221.38
2023-03-20T15:35:31.099Z,100227.88
2023-03-20T15:38:34.984Z,100227.28
2023-03-20T15:41:38.475Z,100226.84
2023-03-20T15:44:43.861Z,100220.94
2023-03-20T15:47:46.379Z,100228.59
2023-03-20T15:50:58.991Z,100222.22
2023-03-20T15:54:07.901Z,100224.25
2023-03-20T15:57:19.698Z,100223.63
2023-03-20T16:00:41.866Z,100218.88
2023-03-20T16:03:44.794Z,100221.69
2023-03-20T16:06:57.264Z,100214.41
2023-03-20T16:10:00.542Z,100218.75
2023-03-20T16:13:04.604Z,100226.69
2023-03-20T16:16:11.975Z,100230.06
2023-03-20T16:19:15.294Z,100239.31
2023-03-20T16:22:30.361Z,100244.41
2023-03-20T16:25:35.728Z,100246.56
2023-03-20T16:28:39.226Z,100238.94
2023-03-20T16:31:48.616Z,100251.06
2023-03-20T16:34:52.071Z,100254.00
2023-03-20T16:37:58.743Z,100258.91
2023-03-20T16:41:22.338Z,100250.53
2023-03-20T16:44:32.243Z,100252.25
2023-03-20T16:47:38.443Z,100264.50
2023-03-20T16:50:43.701Z,100257.31
2023-03-20T16:53:50.740Z,100266.19
2023-03-20T16:56:56.154Z,100270.72
2023-03-20T17:00:06.445Z,100270.69
2023-03-20T17:03:16.984Z,100272.00
2023-03-20T17:06:21.602Z,100275.31
2023-03-20T17:09:28.241Z,100281.97
2023-03-20T17:12:32.779Z,100286.66
2023-03-20T17:15:35.755Z,100284.78
2023-03-20T17:18:38.784Z,100273.25
2023-03-20T17:21:42.449Z,100283.56
2023-03-20T17:24:46.204Z,100282.44
2023-03-20T17:27:49.717Z,100288.59
2023-03-20T17:30:52.641Z,100285.88
2023-03-20T17:33:56.851Z,100280.50
2023-03-20T17:37:03.901Z,100278.78
2023-03-20T17:40:12.127Z,100283.78
2023-03-20T17:43:16.101Z,100280.38
2023-03-20T17:46:28.005Z,100285.78
2023-03-20T17:49:32.758Z,100284.13
2023-03-20T17:52:36.075Z,100276.53
2023-03-20T17:55:38.977Z,100286.84
2023-03-20T17:58:45.134Z,100294.38
2023-03-20T18:01:49.440Z,100297.09
2023-03-20T18:04:52.837Z,100296.91
2023-03-20T18:07:56.422Z,100301.88
2023-03-20T18:11:00.003Z,100303.50
2023-03-20T18:14:03.989Z,100300.47
2023-03-20T18:17:08.204Z,100295.75
2023-03-20T18:20:29.836Z,100299.72
2023-03-20T18:23:33.039Z,100296.91
2023-03-20T18:26:36.365Z,100299.34
2023-03-20T18:29:41.042Z,100296.91
2023-03-20T18:32:45.488Z,100300.72
2023-03-20T18:35:51.185Z,100304.06
2023-03-20T18:38:54.225Z,100302.31
2023-03-20T18:41:57.914Z,100312.25
2023-03-20T18:45:01.547Z,100302.19
2023-03-20T18:48:05.763Z,100312.72
2023-03-20T18:51:09.896Z,100300.84
2023-03-20T18:54:13.720Z,100309.50
2023-03-20T18:57:18.175Z,100303.19
2023-03-20T19:00:30.894Z,100308.53
2023-03-20T19:03:39.549Z,100309.13
2023-03-20T19:06:42.513Z,100312.56
2023-03-20T19:09:47.014Z,100318.66
2023-03-20T19:12:51.069Z,100315.59
2023-03-20T19:16:00.046Z,100314.78
2023-03-20T19:19:06.747Z,100320.94
2023-03-20T19:22:22.494Z,100314.84
2023-03-20T19:25:31.988Z,100318.22
2023-03-20T19:28:40.702Z,100319.56
2023-03-20T19:31:44.604Z,100321.13
2023-03-20T19:35:35.288Z,100313.78
2023-03-20T19:38:20.531Z,100316.59
2023-03-20T19:41:25.150Z,100306.47
2023-03-20T19:44:31.858Z,100308.44
2023-03-20T19:47:37.261Z,100316.09
2023-03-20T19:50:43.643Z,100312.47
2023-03-20T19:53:48.250Z,100310.72
2023-03-20T19:56:55.004Z,100321.78
2023-03-20T20:00:46.528Z,100323.75
2023-03-20T20:03:25.164Z,100319.03
2023-03-20T20:06:32.057Z,100318.22
2023-03-20T20:09:36.601Z,100318.41
2023-03-20T20:12:40.283Z,100320.47
2023-03-20T20:15:45.138Z,100302.13
2023-03-20T20:18:49.294Z,100307.75
2023-03-20T20:25:19.345Z,100305.19
2023-03-20T20:28:23.633Z,100318.00
2023-03-20T20:31:30.929Z,100314.94
2023-03-20T20:41:22.037Z,100314.28
2023-03-20T20:44:25.959Z,100303.13
2023-03-20T20:47:30.396Z,100308.66
2023-03-20T20:50:36.149Z,100307.16
2023-03-20T20:53:39.716Z,100307.44
2023-03-20T20:56:42.944Z,100298.38
2023-03-20T20:59:46.581Z,100297.25
2023-03-20T21:02:51.315Z,100297.41
2023-03-20T21:05:54.444Z,100302.47
2023-03-20T21:08:57.530Z,100307.53
2023-03-20T21:12:01.622Z,100306.94
2023-03-20T21:15:06.170Z,100306.53
2023-03-20T21:18:12.719Z,100302.19
2023-03-20T21:21:16.267Z,100300.78
2023-03-20T21:24:32.207Z,100295.75
2023-03-20T21:27:36.908Z,100292.13
2023-03-20T21:30:51.107Z,100291.63
2023-03-20T21:34:06.152Z,100293.13
2023-03-20T21:38:21.716Z,100297.88
2023-03-20T21:40:32.122Z,100301.84
2023-03-20T21:43:35.006Z,100301.25
2023-03-20T21:47:12.678Z,100305.69
2023-03-20T21:54:28.376Z,100309.31
2023-03-20T22:04:06.281Z,100306.00
2023-03-20T22:11:10.611Z,100316.06
2023-03-20T22:17:51.384Z,100309.81
2023-03-20T22:24:45.180Z,100302.91
2023-03-20T22:31:28.581Z,100292.03
2023-03-20T22:47:40.696Z,100293.34
2023-03-20T22:50:43.262Z,100291.81
2023-03-20T22:53:45.826Z,100305.88
2023-03-20T22:56:48.917Z,100304.19
2023-03-20T22:59:51.725Z,100303.78
2023-03-20T23:02:57.295Z,100301.69
2023-03-20T23:06:10.189Z,100300.19
2023-03-20T23:09:15.765Z,100304.16
2023-03-20T23:12:18.621Z,100317.59
2023-03-20T23:15:21.504Z,100304.72
2023-03-20T23:18:24.177Z,100306.41
2023-03-20T23:21:27.955Z,100308.09
2023-03-20T23:24:30.509Z,100311.63
2023-03-20T23:27:33.136Z,100298.88
2023-03-20T23:31:07.411Z,100306.44
2023-03-20T23:33:59.144Z,100309.09
2023-03-20T23:37:01.904Z,100308.44
2023-03-20T23:40:05.412Z,100303.38
2023-03-20T23:43:08.785Z,100312.31
2023-03-20T23:46:11.691Z,100301.13
2023-03-20T23:49:14.856Z,100310.81
2023-03-20T23:52:17.589Z,100308.00
2023-03-20T23:55:21.700Z,100304.50
2023-03-20T23:58:26.847Z,100302.53
